createdAt,value
2018-08-07T00:00:04.825Z,0.00
2018-08-07T00:01:04.826Z,0.00
2018-08-07T00:02:04.827Z,0.00
2018-08-07T00:03:04.827Z,0.00
2018-08-07T00:04:04.828Z,0.00
2018-08-07T00:05:04.828Z,0.00
2018-08-07T00:06:04.830Z,0.00
2018-08-07T00:07:04.830Z,0.00
2018-08-07T00:08:04.833Z,0.00
2018-08-07T00:09:04.831Z,0.00
2018-08-07T00:10:04.832Z,0.00
2018-08-07T00:11:04.832Z,0.00
2018-08-07T00:12:04.831Z,0.00
2018-08-07T00:13:04.833Z,0.00
2018-08-07T00:14:04.833Z,0.00
2018-08-07T00:15:04.833Z,0.00
2018-08-07T00:16:04.836Z,0.00
2018-08-07T00:17:04.835Z,0.00
2018-08-07T00:18:04.834Z,0.00
2018-08-07T00:19:04.834Z,0.00
2018-08-07T00:20:04.835Z,0.00
2018-08-07T00:21:04.839Z,0.00
2018-08-07T00:22:04.872Z,0.00
2018-08-07T00:23:04.837Z,0.00
2018-08-07T00:24:04.837Z,0.00
2018-08-07T00:25:04.838Z,0.00
2018-08-07T00:26:04.838Z,0.00
2018-08-07T00:27:04.840Z,0.00
2018-08-07T00:28:04.839Z,0.00
2018-08-07T00:29:04.839Z,0.00
2018-08-07T00:30:04.841Z,0.00
2018-08-07T00:31:04.839Z,0.00
2018-08-07T00:32:04.839Z,0.00
2018-08-07T00:33:04.839Z,0.00
2018-08-07T00:34:04.841Z,0.00
2018-08-07T00:35:04.841Z,0.00
2018-08-07T00:36:04.841Z,0.00
2018-08-07T00:37:04.841Z,0.00
2018-08-07T00:38:04.842Z,0.00
2018-08-07T00:39:04.844Z,0.00
2018-08-07T00:40:04.841Z,0.00
2018-08-07T00:41:04.842Z,0.00
2018-08-07T00:42:04.844Z,0.00
2018-08-07T00:43:04.843Z,0.00
2018-08-07T00:44:04.841Z,0.00
2018-08-07T00:45:04.842Z,0.00
2018-08-07T00:46:04.842Z,0.00
2018-08-07T00:47:04.843Z,0.00
2018-08-07T00:48:04.842Z,0.00
2018-08-07T00:49:04.843Z,0.00
2018-08-07T00:50:04.874Z,0.00
2018-08-07T00:51:04.844Z,0.00
2018-08-07T00:52:04.844Z,0.00
2018-08-07T00:53:04.844Z,0.00
2018-08-07T00:54:04.844Z,0.00
2018-08-07T00:55:04.843Z,0.00
2018-08-07T00:56:04.844Z,0.00
2018-08-07T00:57:04.845Z,0.00
2018-08-07T00:58:04.844Z,0.00
2018-08-07T00:59:04.845Z,0.00
2018-08-07T01:00:04.850Z,0.00
2018-08-07T01:01:04.844Z,0.00
2018-08-07T01:02:04.848Z,0.00
2018-08-07T01:03:04.844Z,0.00
2018-08-07T01:04:04.844Z,0.00
2018-08-07T01:05:04.845Z,0.00
2018-08-07T01:06:04.844Z,0.00
2018-08-07T01:07:04.848Z,0.00
2018-08-07T01:08:04.844Z,0.00
2018-08-07T01:09:04.844Z,0.00
2018-08-07T01:10:04.844Z,0.00
2018-08-07T01:11:04.845Z,0.00
2018-08-07T01:12:04.843Z,0.00
2018-08-07T01:13:04.844Z,0.00
2018-08-07T01:14:04.843Z,0.00
2018-08-07T01:15:04.846Z,0.00
2018-08-07T01:16:04.843Z,0.00
2018-08-07T01:17:04.843Z,0.00
2018-08-07T01:18:04.842Z,0.00
2018-08-07T01:19:04.844Z,0.00
2018-08-07T01:20:04.842Z,0.00
2018-08-07T01:21:04.843Z,0.00
2018-08-07T01:22:04.843Z,0.00
2018-08-07T01:23:04.843Z,0.00
2018-08-07T01:24:04.842Z,0.00
2018-08-07T01:25:04.842Z,0.00
2018-08-07T01:26:04.848Z,0.00
2018-08-07T01:27:04.903Z,0.00
2018-08-07T01:28:04.841Z,0.00
2018-08-07T01:29:04.841Z,0.00
2018-08-07T01:30:04.844Z,0.00
2018-08-07T01:31:04.841Z,0.00
2018-08-07T01:32:04.853Z,0.00
2018-08-07T01:33:04.841Z,0.00
2018-08-07T01:34:04.850Z,0.00
2018-08-07T01:35:04.841Z,0.00
2018-08-07T01:36:04.839Z,0.00
2018-08-07T01:37:04.838Z,0.00
2018-08-07T01:38:04.842Z,0.00
2018-08-07T01:39:04.839Z,0.00
2018-08-07T01:40:04.837Z,0.00
2018-08-07T01:41:04.838Z,0.00
2018-08-07T01:42:04.837Z,0.00
2018-08-07T01:43:04.837Z,0.00
2018-08-07T01:44:04.837Z,0.00
2018-08-07T01:45:04.837Z,0.00
2018-08-07T01:46:04.836Z,0.00
2018-08-07T01:47:04.838Z,0.00
2018-08-07T01:48:04.835Z,0.00
2018-08-07T01:49:04.835Z,0.00
2018-08-07T01:50:04.835Z,0.00
2018-08-07T01:51:04.834Z,0.00
2018-08-07T01:52:04.836Z,0.00
2018-08-07T01:53:04.833Z,0.00
2018-08-07T01:54:04.834Z,0.00
2018-08-07T01:55:04.833Z,0.00
2018-08-07T01:56:04.831Z,0.00
2018-08-07T01:57:04.830Z,0.00
2018-08-07T01:58:04.830Z,0.00
2018-08-07T01:59:04.832Z,0.00
2018-08-07T02:00:04.828Z,0.00
2018-08-07T02:01:04.829Z,0.00
2018-08-07T02:02:04.830Z,0.00
2018-08-07T02:03:04.834Z,0.00
2018-08-07T02:04:04.828Z,0.00
2018-08-07T02:05:04.828Z,0.00
2018-08-07T02:06:04.828Z,0.00
2018-08-07T02:07:04.828Z,0.00
2018-08-07T02:08:04.826Z,0.00
2018-08-07T02:09:04.826Z,0.00
2018-08-07T02:10:04.828Z,0.00
2018-08-07T02:11:04.826Z,0.00
2018-08-07T02:12:04.823Z,0.00
2018-08-07T02:13:04.823Z,0.00
2018-08-07T02:14:04.824Z,0.00
2018-08-07T02:15:04.823Z,0.00
2018-08-07T02:16:04.822Z,0.00
2018-08-07T02:17:04.821Z,0.00
2018-08-07T02:18:04.821Z,0.00
2018-08-07T02:19:04.820Z,0.00
2018-08-07T02:20:04.820Z,0.00
2018-08-07T02:21:04.820Z,0.00
2018-08-07T02:22:04.819Z,0.00
2018-08-07T02:23:04.818Z,0.00
2018-08-07T02:24:04.817Z,0.00
2018-08-07T02:25:04.816Z,0.00
2018-08-07T02:26:04.816Z,0.00
2018-08-07T02:27:04.816Z,0.00
2018-08-07T02:28:04.822Z,0.00
2018-08-07T02:29:04.865Z,0.00
2018-08-07T02:30:04.814Z,0.00
2018-08-07T02:31:04.813Z,0.00
2018-08-07T02:32:04.812Z,0.00
2018-08-07T02:33:04.811Z,0.00
2018-08-07T02:34:04.811Z,0.00
2018-08-07T02:35:04.817Z,0.00
2018-08-07T02:36:04.809Z,0.00
2018-08-07T02:37:04.808Z,0.00
2018-08-07T02:38:04.808Z,0.00
2018-08-07T02:39:04.808Z,0.00
2018-08-07T02:40:04.807Z,0.00
2018-08-07T02:41:04.807Z,0.00
2018-08-07T02:42:04.805Z,0.00
2018-08-07T02:43:04.807Z,0.00
2018-08-07T02:44:04.804Z,0.00
2018-08-07T02:45:04.803Z,0.00
2018-08-07T02:46:04.803Z,0.00
2018-08-07T02:47:04.803Z,0.00
2018-08-07T02:48:04.804Z,0.00
2018-08-07T02:49:04.801Z,0.00
2018-08-07T02:50:04.800Z,0.00
2018-08-07T02:51:04.800Z,0.00
2018-08-07T02:52:04.802Z,0.00
2018-08-07T02:53:04.798Z,0.00
2018-08-07T02:54:04.798Z,0.00
2018-08-07T02:55:04.798Z,0.00
2018-08-07T02:56:04.796Z,0.00
2018-08-07T02:57:04.794Z,0.00
2018-08-07T02:58:04.797Z,0.00
2018-08-07T02:59:04.796Z,0.00
2018-08-07T03:00:04.794Z,0.00
2018-08-07T03:01:04.793Z,0.00
2018-08-07T03:02:04.792Z,0.00
2018-08-07T03:03:04.792Z,0.00
2018-08-07T03:04:04.790Z,0.00
2018-08-07T03:05:04.790Z,0.00
2018-08-07T03:06:04.790Z,0.00
2018-08-07T03:07:04.791Z,0.00
2018-08-07T03:08:04.789Z,0.00
2018-08-07T03:09:04.787Z,0.00
2018-08-07T03:10:04.788Z,0.00
2018-08-07T03:11:04.787Z,0.00
2018-08-07T03:12:04.785Z,0.00
2018-08-07T03:13:04.784Z,0.00
2018-08-07T03:14:04.784Z,0.00
2018-08-07T03:15:04.783Z,0.00
2018-08-07T03:16:04.783Z,0.00
2018-08-07T03:17:04.782Z,0.00
2018-08-07T03:18:04.781Z,0.00
2018-08-07T03:19:04.781Z,0.00
2018-08-07T03:20:04.809Z,0.00
2018-08-07T03:21:04.783Z,0.00
2018-08-07T03:22:04.779Z,0.00
2018-08-07T03:23:04.779Z,0.00
2018-08-07T03:24:04.779Z,0.00
2018-08-07T03:25:04.775Z,0.00
2018-08-07T03:26:04.777Z,0.00
2018-08-07T03:27:04.776Z,0.00
2018-08-07T03:28:04.773Z,0.00
2018-08-07T03:29:04.772Z,0.00
2018-08-07T03:30:04.772Z,0.00
2018-08-07T03:31:04.771Z,4.00
2018-08-07T03:32:04.774Z,0.00
2018-08-07T03:33:04.770Z,0.00
2018-08-07T03:34:04.769Z,4.00
2018-08-07T03:35:04.769Z,0.00
2018-08-07T03:36:04.768Z,4.00
2018-08-07T03:37:04.767Z,4.00
2018-08-07T03:38:04.767Z,4.00
2018-08-07T03:39:04.770Z,8.00
2018-08-07T03:40:04.765Z,8.00
2018-08-07T03:41:04.764Z,8.00
2018-08-07T03:42:04.763Z,8.00
2018-08-07T03:43:04.763Z,8.00
2018-08-07T03:44:04.762Z,8.00
2018-08-07T03:45:04.765Z,12.00
2018-08-07T03:46:04.763Z,16.00
2018-08-07T03:47:04.762Z,20.00
2018-08-07T03:48:04.761Z,20.00
2018-08-07T03:49:04.760Z,20.00
2018-08-07T03:50:04.763Z,24.00
2018-08-07T03:51:04.760Z,28.00
2018-08-07T03:52:04.759Z,36.00
2018-08-07T03:53:04.814Z,36.00
2018-08-07T03:54:04.757Z,40.00
2018-08-07T03:55:04.757Z,44.00
2018-08-07T03:56:04.756Z,52.00
2018-08-07T03:57:04.754Z,60.00
2018-08-07T03:58:04.754Z,64.00
2018-08-07T03:59:04.802Z,72.00
2018-08-07T04:00:04.754Z,76.00
2018-08-07T04:01:04.753Z,84.00
2018-08-07T04:02:04.752Z,92.00
2018-08-07T04:03:04.752Z,100.00
2018-08-07T04:04:04.754Z,108.00
2018-08-07T04:05:04.789Z,120.00
2018-08-07T04:06:04.751Z,132.00
2018-08-07T04:07:04.750Z,144.00
2018-08-07T04:08:04.749Z,156.00
2018-08-07T04:09:04.748Z,168.00
2018-08-07T04:10:04.749Z,180.00
2018-08-07T04:11:04.748Z,196.00
2018-08-07T04:12:04.746Z,208.00
2018-08-07T04:13:04.746Z,224.00
2018-08-07T04:14:04.744Z,244.00
2018-08-07T04:15:04.746Z,256.00
2018-08-07T04:16:04.743Z,276.00
2018-08-07T04:17:04.743Z,292.00
2018-08-07T04:18:04.743Z,312.00
2018-08-07T04:19:04.743Z,332.00
2018-08-07T04:20:04.740Z,352.00
2018-08-07T04:21:04.744Z,372.00
2018-08-07T04:22:04.741Z,392.00
2018-08-07T04:23:04.740Z,416.00
2018-08-07T04:24:04.738Z,436.00
2018-08-07T04:25:04.738Z,460.00
2018-08-07T04:26:04.773Z,480.00
2018-08-07T04:27:04.737Z,508.00
2018-08-07T04:28:04.737Z,532.00
2018-08-07T04:29:04.737Z,552.00
2018-08-07T04:30:04.737Z,576.00
2018-08-07T04:31:04.736Z,600.00
2018-08-07T04:32:04.735Z,628.00
2018-08-07T04:33:04.735Z,652.00
2018-08-07T04:34:04.735Z,680.00
2018-08-07T04:35:04.734Z,704.00
2018-08-07T04:36:04.732Z,732.00
2018-08-07T04:37:04.732Z,764.00
2018-08-07T04:38:04.733Z,812.00
2018-08-07T04:39:04.733Z,908.00
2018-08-07T04:40:04.730Z,1060.00
2018-08-07T04:41:04.730Z,1288.00
2018-08-07T04:42:04.731Z,1452.00
2018-08-07T04:43:04.731Z,1532.00
2018-08-07T04:44:04.732Z,1620.00
2018-08-07T04:45:04.730Z,1696.00
2018-08-07T04:46:04.733Z,1788.00
2018-08-07T04:47:04.729Z,1860.00
2018-08-07T04:48:04.730Z,1944.00
2018-08-07T04:49:04.729Z,2008.00
2018-08-07T04:50:04.729Z,2076.00
2018-08-07T04:51:04.729Z,2152.00
2018-08-07T04:52:04.728Z,2248.00
2018-08-07T04:53:04.729Z,2340.00
2018-08-07T04:54:04.728Z,2420.00
2018-08-07T04:55:04.730Z,6420.00
2018-08-07T04:56:04.729Z,6716.00
2018-08-07T04:57:04.731Z,6996.00
2018-08-07T04:58:04.798Z,7260.00
2018-08-07T04:59:04.731Z,7476.00
2018-08-07T05:00:04.733Z,7608.00
2018-08-07T05:01:04.734Z,7908.00
2018-08-07T05:02:04.740Z,8116.00
2018-08-07T05:03:04.736Z,8572.00
2018-08-07T05:04:04.738Z,8828.00
2018-08-07T05:05:04.739Z,9316.00
2018-08-07T05:06:04.741Z,9768.00
2018-08-07T05:07:04.742Z,10060.00
2018-08-07T05:08:04.742Z,10268.00
2018-08-07T05:09:04.746Z,10524.00
2018-08-07T05:10:04.748Z,10824.00
2018-08-07T05:11:04.753Z,11100.00
2018-08-07T05:12:04.752Z,11412.00
2018-08-07T05:13:04.756Z,11744.00
2018-08-07T05:14:04.760Z,12120.00
2018-08-07T05:15:04.762Z,12408.00
2018-08-07T05:16:04.765Z,12740.00
2018-08-07T05:17:04.769Z,13152.00
2018-08-07T05:18:04.772Z,13536.00
2018-08-07T05:19:04.776Z,13728.00
2018-08-07T05:20:04.779Z,14016.00
2018-08-07T05:21:04.781Z,14272.00
2018-08-07T05:22:04.786Z,14528.00
2018-08-07T05:23:04.790Z,14848.00
2018-08-07T05:24:04.800Z,15008.00
2018-08-07T05:25:04.798Z,15360.00
2018-08-07T05:26:04.803Z,15552.00
2018-08-07T05:27:04.808Z,15776.00
2018-08-07T05:28:04.811Z,15968.00
2018-08-07T05:29:04.817Z,16224.00
2018-08-07T05:30:04.820Z,16416.00
2018-08-07T05:31:04.829Z,16672.00
2018-08-07T05:32:04.827Z,16864.00
2018-08-07T05:33:04.833Z,17120.00
2018-08-07T05:34:04.838Z,17248.00
2018-08-07T05:35:04.849Z,17504.00
2018-08-07T05:36:04.848Z,17760.00
2018-08-07T05:37:04.854Z,17824.00
2018-08-07T05:38:04.857Z,18112.00
2018-08-07T05:39:04.863Z,18464.00
2018-08-07T05:40:04.868Z,18624.00
2018-08-07T05:41:04.874Z,18816.00
2018-08-07T05:42:04.878Z,19040.00
2018-08-07T05:43:04.885Z,19264.00
2018-08-07T05:44:04.889Z,19456.00
2018-08-07T05:45:04.896Z,19712.00
2018-08-07T05:46:04.901Z,20064.00
2018-08-07T05:47:04.907Z,20320.00
2018-08-07T05:48:04.912Z,20544.00
2018-08-07T05:49:04.917Z,20768.00
2018-08-07T05:50:05.088Z,20928.00
2018-08-07T05:51:05.446Z,21184.00
2018-08-07T05:52:04.940Z,21472.00
2018-08-07T05:53:04.946Z,21760.00
2018-08-07T05:54:04.950Z,21888.00
2018-08-07T05:55:05.010Z,21984.00
2018-08-07T05:56:04.963Z,22240.00
2018-08-07T05:57:04.970Z,22496.00
2018-08-07T05:58:05.044Z,22720.00
2018-08-07T05:59:04.985Z,22816.00
2018-08-07T06:00:04.994Z,23072.00
2018-08-07T06:01:05.062Z,23232.00
2018-08-07T06:02:05.007Z,23392.00
2018-08-07T06:03:05.020Z,23456.00
2018-08-07T06:04:05.021Z,23584.00
2018-08-07T06:05:05.029Z,23840.00
2018-08-07T06:06:05.039Z,24000.00
2018-08-07T06:07:05.045Z,24192.00
2018-08-07T06:08:05.054Z,24224.00
2018-08-07T06:09:05.063Z,24384.00
2018-08-07T06:10:05.071Z,24512.00
2018-08-07T06:11:05.079Z,24480.00
2018-08-07T06:12:05.089Z,24512.00
2018-08-07T06:13:05.098Z,24736.00
2018-08-07T06:14:05.107Z,24832.00
2018-08-07T06:15:05.118Z,24960.00
2018-08-07T06:16:05.127Z,25184.00
2018-08-07T06:17:05.135Z,25248.00
2018-08-07T06:18:05.144Z,25376.00
2018-08-07T06:19:05.190Z,25600.00
2018-08-07T06:20:05.164Z,25760.00
2018-08-07T06:21:05.178Z,25984.00
2018-08-07T06:22:05.185Z,26176.00
2018-08-07T06:23:05.195Z,26272.00
2018-08-07T06:24:05.207Z,26432.00
2018-08-07T06:25:05.218Z,26752.00
2018-08-07T06:26:05.230Z,26848.00
2018-08-07T06:27:05.240Z,27104.00
2018-08-07T06:28:05.250Z,27168.00
2018-08-07T06:29:05.263Z,27104.00
2018-08-07T06:30:05.283Z,27456.00
2018-08-07T06:31:05.285Z,27776.00
2018-08-07T06:32:05.296Z,27872.00
2018-08-07T06:33:05.308Z,27808.00
2018-08-07T06:34:05.320Z,27840.00
2018-08-07T06:35:05.332Z,28032.00
2018-08-07T06:36:05.344Z,28096.00
2018-08-07T06:37:05.359Z,28416.00
2018-08-07T06:38:05.370Z,28448.00
2018-08-07T06:39:05.383Z,28544.00
2018-08-07T06:40:05.393Z,28768.00
2018-08-07T06:41:05.407Z,28864.00
2018-08-07T06:42:05.420Z,29024.00
2018-08-07T06:43:05.568Z,29184.00
2018-08-07T06:44:05.447Z,29408.00
2018-08-07T06:45:05.457Z,29536.00
2018-08-07T06:46:05.470Z,29728.00
2018-08-07T06:47:05.485Z,29856.00
2018-08-07T06:48:05.557Z,30112.00
2018-08-07T06:49:05.512Z,30336.00
2018-08-07T06:50:05.591Z,30496.00
2018-08-07T06:51:05.537Z,30656.00
2018-08-07T06:52:05.549Z,30816.00
2018-08-07T06:53:05.563Z,30976.00
2018-08-07T06:54:05.576Z,31104.00
2018-08-07T06:55:05.590Z,31232.00
2018-08-07T06:56:05.602Z,31360.00
2018-08-07T06:57:05.623Z,31648.00
2018-08-07T06:58:05.629Z,31968.00
2018-08-07T06:59:05.643Z,32096.00
2018-08-07T07:00:05.655Z,32288.00
2018-08-07T07:01:05.669Z,32480.00
2018-08-07T07:02:05.683Z,32768.00
2018-08-07T07:03:05.698Z,32896.00
2018-08-07T07:04:05.709Z,33248.00
2018-08-07T07:05:05.724Z,33376.00
2018-08-07T07:06:05.737Z,33632.00
2018-08-07T07:07:05.751Z,33824.00
2018-08-07T07:08:05.765Z,33792.00
2018-08-07T07:09:05.779Z,33984.00
2018-08-07T07:10:05.794Z,34208.00
2018-08-07T07:11:05.808Z,34400.00
2018-08-07T07:12:05.822Z,34560.00
2018-08-07T07:13:05.836Z,34688.00
2018-08-07T07:14:05.849Z,34880.00
2018-08-07T07:15:05.869Z,35008.00
2018-08-07T07:16:05.881Z,35040.00
2018-08-07T07:17:05.892Z,35168.00
2018-08-07T07:18:05.907Z,35424.00
2018-08-07T07:19:05.921Z,35648.00
2018-08-07T07:20:05.936Z,35840.00
2018-08-07T07:21:05.951Z,36000.00
2018-08-07T07:22:05.964Z,35936.00
2018-08-07T07:23:05.980Z,36256.00
2018-08-07T07:24:05.997Z,36576.00
2018-08-07T07:25:06.012Z,36960.00
2018-08-07T07:26:06.025Z,37376.00
2018-08-07T07:27:06.041Z,37760.00
2018-08-07T07:28:06.055Z,38016.00
2018-08-07T07:29:06.074Z,38464.00
2018-08-07T07:30:06.089Z,39264.00
2018-08-07T07:31:06.103Z,40480.00
2018-08-07T07:32:06.116Z,42176.00
2018-08-07T07:33:06.131Z,43616.00
2018-08-07T07:34:06.210Z,46752.00
2018-08-07T07:35:06.163Z,52320.00
2018-08-07T07:36:06.178Z,60704.00
2018-08-07T07:37:06.194Z,69440.00
2018-08-07T07:38:06.210Z,74688.00
2018-08-07T07:39:06.231Z,74304.00
2018-08-07T07:40:06.250Z,67552.00
2018-08-07T07:41:06.262Z,64320.00
2018-08-07T07:42:06.286Z,64608.00
2018-08-07T07:43:06.299Z,66656.00
2018-08-07T07:44:06.317Z,66912.00
2018-08-07T07:45:06.333Z,67776.00
2018-08-07T07:46:06.355Z,68192.00
2018-08-07T07:47:06.405Z,71776.00
2018-08-07T07:48:06.375Z,74240.00
2018-08-07T07:49:06.390Z,74432.00
2018-08-07T07:50:06.416Z,78080.00
2018-08-07T07:51:06.428Z,85024.00
2018-08-07T07:52:06.442Z,91744.00
2018-08-07T07:53:06.456Z,97856.00
2018-08-07T07:54:06.514Z,95808.00
2018-08-07T07:55:06.494Z,94848.00
2018-08-07T07:56:06.508Z,90944.00
2018-08-07T07:57:06.526Z,87968.00
2018-08-07T07:58:06.538Z,86240.00
2018-08-07T07:59:06.556Z,87776.00
2018-08-07T08:00:06.572Z,86496.00
2018-08-07T08:01:06.590Z,83392.00
2018-08-07T08:02:06.612Z,86208.00
2018-08-07T08:03:06.626Z,89344.00
2018-08-07T08:04:06.645Z,95520.00
2018-08-07T08:05:06.709Z,90464.00
2018-08-07T08:06:06.729Z,82208.00
2018-08-07T08:07:06.692Z,81728.00
2018-08-07T08:08:06.714Z,79552.00
2018-08-07T08:09:06.731Z,77408.00
2018-08-07T08:10:06.744Z,77344.00
2018-08-07T08:11:06.818Z,76544.00
2018-08-07T08:12:06.780Z,75552.00
2018-08-07T08:13:06.800Z,74464.00
2018-08-07T08:14:06.820Z,74208.00
2018-08-07T08:15:06.839Z,74176.00
2018-08-07T08:16:06.859Z,69152.00
2018-08-07T08:17:06.876Z,64256.00
2018-08-07T08:18:06.889Z,65952.00
2018-08-07T08:19:06.908Z,65696.00
2018-08-07T08:20:06.945Z,63200.00
2018-08-07T08:21:06.946Z,61920.00
2018-08-07T08:22:06.973Z,60928.00
2018-08-07T08:23:06.989Z,59168.00
2018-08-07T08:24:07.003Z,57920.00
2018-08-07T08:25:07.021Z,58528.00
2018-08-07T08:26:07.045Z,57248.00
2018-08-07T08:27:07.066Z,56352.00
2018-08-07T08:28:07.087Z,57728.00
2018-08-07T08:29:07.129Z,59424.00
2018-08-07T08:30:07.154Z,63360.00
2018-08-07T08:31:07.139Z,62304.00
2018-08-07T08:32:07.159Z,60000.00
2018-08-07T08:33:07.179Z,59552.00
2018-08-07T08:34:07.204Z,57088.00
2018-08-07T08:35:07.318Z,56992.00
2018-08-07T08:36:07.244Z,56992.00
2018-08-07T08:37:07.271Z,55776.00
2018-08-07T08:38:07.317Z,57152.00
2018-08-07T08:39:07.300Z,59104.00
2018-08-07T08:40:07.324Z,56480.00
2018-08-07T08:41:07.346Z,54752.00
2018-08-07T08:42:07.366Z,55008.00
2018-08-07T08:43:07.383Z,54720.00
2018-08-07T08:44:07.405Z,53856.00
2018-08-07T08:45:07.425Z,54752.00
2018-08-07T08:46:07.452Z,55712.00
2018-08-07T08:47:07.474Z,56640.00
2018-08-07T08:48:07.547Z,57504.00
2018-08-07T08:49:07.518Z,58336.00
2018-08-07T08:50:07.533Z,56992.00
2018-08-07T08:51:07.553Z,56320.00
2018-08-07T08:52:07.572Z,55936.00
2018-08-07T08:53:07.592Z,56800.00
2018-08-07T08:54:07.653Z,58304.00
2018-08-07T08:55:07.639Z,59552.00
2018-08-07T08:56:07.654Z,59616.00
2018-08-07T08:57:07.674Z,58528.00
2018-08-07T08:58:07.700Z,58112.00
2018-08-07T08:59:07.720Z,57664.00
2018-08-07T09:00:07.753Z,57120.00
2018-08-07T09:01:07.764Z,58176.00
2018-08-07T09:02:07.782Z,59296.00
2018-08-07T09:03:07.801Z,59616.00
2018-08-07T09:04:07.823Z,59488.00
2018-08-07T09:05:07.849Z,60128.00
2018-08-07T09:06:07.870Z,61024.00
2018-08-07T09:07:07.891Z,61312.00
2018-08-07T09:08:07.911Z,61216.00
2018-08-07T09:09:07.934Z,60416.00
2018-08-07T09:10:07.954Z,60672.00
2018-08-07T09:11:07.972Z,61504.00
2018-08-07T09:12:07.998Z,62688.00
2018-08-07T09:13:08.024Z,63456.00
2018-08-07T09:14:08.038Z,63936.00
2018-08-07T09:15:08.059Z,64896.00
2018-08-07T09:16:08.082Z,65920.00
2018-08-07T09:17:08.104Z,65856.00
2018-08-07T09:18:08.134Z,65760.00
2018-08-07T09:19:08.156Z,66528.00
2018-08-07T09:20:08.174Z,66432.00
2018-08-07T09:21:08.200Z,66240.00
2018-08-07T09:22:08.214Z,68096.00
2018-08-07T09:23:08.237Z,69344.00
2018-08-07T09:24:08.260Z,70752.00
2018-08-07T09:25:08.283Z,72768.00
2018-08-07T09:26:08.392Z,72512.00
2018-08-07T09:27:08.332Z,75520.00
2018-08-07T09:28:08.350Z,75264.00
2018-08-07T09:29:08.373Z,71232.00
2018-08-07T09:30:08.401Z,67552.00
2018-08-07T09:31:08.423Z,63232.00
2018-08-07T09:32:08.447Z,60896.00
2018-08-07T09:33:08.469Z,59744.00
2018-08-07T09:34:08.487Z,59168.00
2018-08-07T09:35:08.509Z,58752.00
2018-08-07T09:36:08.531Z,58048.00
2018-08-07T09:37:08.554Z,56512.00
2018-08-07T09:38:08.587Z,55488.00
2018-08-07T09:39:08.603Z,54624.00
2018-08-07T09:40:08.639Z,53984.00
2018-08-07T09:41:08.650Z,53568.00
2018-08-07T09:42:08.672Z,52992.00
2018-08-07T09:43:08.698Z,52288.00
2018-08-07T09:44:08.717Z,52064.00
2018-08-07T09:45:08.741Z,51424.00
2018-08-07T09:46:08.760Z,50976.00
2018-08-07T09:47:08.782Z,50688.00
2018-08-07T09:48:08.804Z,50144.00
2018-08-07T09:49:08.827Z,49888.00
2018-08-07T09:50:08.857Z,49792.00
2018-08-07T09:51:08.879Z,49472.00
2018-08-07T09:52:08.901Z,48896.00
2018-08-07T09:53:08.922Z,48800.00
2018-08-07T09:54:08.942Z,48864.00
2018-08-07T09:55:08.964Z,48512.00
2018-08-07T09:56:08.995Z,48320.00
2018-08-07T09:57:09.008Z,48352.00
2018-08-07T09:58:09.035Z,48448.00
2018-08-07T09:59:09.060Z,48608.00
2018-08-07T10:00:09.126Z,48896.00
2018-08-07T10:01:09.099Z,58944.00
2018-08-07T10:02:09.127Z,87936.00
2018-08-07T10:03:09.148Z,117152.00
2018-08-07T10:04:09.168Z,109280.00
2018-08-07T10:05:09.211Z,100768.00
2018-08-07T10:06:09.213Z,100320.00
2018-08-07T10:07:09.232Z,100544.00
2018-08-07T10:08:09.254Z,98528.00
2018-08-07T10:09:09.278Z,96032.00
2018-08-07T10:10:09.304Z,93920.00
2018-08-07T10:11:09.327Z,93184.00
2018-08-07T10:12:09.350Z,91328.00
2018-08-07T10:13:09.374Z,90848.00
2018-08-07T10:14:09.390Z,90240.00
2018-08-07T10:15:09.414Z,93536.00
2018-08-07T10:16:09.445Z,95936.00
2018-08-07T10:17:09.465Z,94336.00
2018-08-07T10:18:09.483Z,94112.00
2018-08-07T10:19:09.506Z,91232.00
2018-08-07T10:20:09.529Z,88320.00
2018-08-07T10:21:09.553Z,89376.00
2018-08-07T10:22:09.579Z,87360.00
2018-08-07T10:23:09.634Z,82560.00
2018-08-07T10:24:09.624Z,83840.00
2018-08-07T10:25:09.648Z,82144.00
2018-08-07T10:26:09.668Z,80224.00
2018-08-07T10:27:09.693Z,79360.00
2018-08-07T10:28:09.715Z,77856.00
2018-08-07T10:29:09.738Z,72864.00
2018-08-07T10:30:09.768Z,72000.00
2018-08-07T10:31:09.790Z,72384.00
2018-08-07T10:32:09.809Z,76096.00
2018-08-07T10:33:09.834Z,74752.00
2018-08-07T10:34:09.861Z,73568.00
2018-08-07T10:35:09.964Z,74752.00
2018-08-07T10:36:09.909Z,75360.00
2018-08-07T10:37:09.932Z,70848.00
2018-08-07T10:38:09.952Z,67936.00
2018-08-07T10:39:09.976Z,67776.00
2018-08-07T10:40:10.000Z,69504.00
2018-08-07T10:41:10.102Z,68896.00
2018-08-07T10:42:10.052Z,69056.00
2018-08-07T10:43:10.133Z,69408.00
2018-08-07T10:44:10.135Z,68768.00
2018-08-07T10:45:10.121Z,68224.00
2018-08-07T10:46:10.141Z,68576.00
2018-08-07T10:47:10.163Z,65856.00
2018-08-07T10:48:10.194Z,65952.00
2018-08-07T10:49:10.215Z,63840.00
2018-08-07T10:50:10.233Z,62816.00
2018-08-07T10:51:10.258Z,62304.00
2018-08-07T10:52:10.295Z,63104.00
2018-08-07T10:53:10.303Z,62560.00
2018-08-07T10:54:10.329Z,61408.00
2018-08-07T10:55:10.354Z,63808.00
2018-08-07T10:56:10.375Z,65216.00
2018-08-07T10:57:10.400Z,67776.00
2018-08-07T10:58:10.464Z,67040.00
2018-08-07T10:59:10.440Z,67648.00
2018-08-07T11:00:10.464Z,69024.00
2018-08-07T11:01:10.486Z,66336.00
2018-08-07T11:02:10.514Z,65408.00
2018-08-07T11:03:10.537Z,65920.00
2018-08-07T11:04:10.556Z,65824.00
2018-08-07T11:05:10.584Z,70720.00
2018-08-07T11:06:10.609Z,72128.00
2018-08-07T11:07:10.631Z,72992.00
2018-08-07T11:08:10.651Z,75328.00
2018-08-07T11:09:10.673Z,73024.00
2018-08-07T11:10:10.695Z,76288.00
2018-08-07T11:11:10.715Z,76992.00
2018-08-07T11:12:10.738Z,79872.00
2018-08-07T11:13:10.760Z,80576.00
2018-08-07T11:14:10.787Z,78880.00
2018-08-07T11:15:10.815Z,80448.00
2018-08-07T11:16:10.833Z,78784.00
2018-08-07T11:17:10.856Z,78496.00
2018-08-07T11:18:10.872Z,79392.00
2018-08-07T11:19:10.898Z,83488.00
2018-08-07T11:20:10.924Z,84992.00
2018-08-07T11:21:10.944Z,86080.00
2018-08-07T11:22:10.961Z,86368.00
2018-08-07T11:23:10.984Z,87296.00
2018-08-07T11:24:11.006Z,84256.00
2018-08-07T11:25:11.029Z,80192.00
2018-08-07T11:26:11.056Z,78848.00
2018-08-07T11:27:11.077Z,73376.00
2018-08-07T11:28:11.101Z,35552.00
2018-08-07T11:29:11.120Z,10800.00
2018-08-07T11:30:11.136Z,8824.00
2018-08-07T11:31:11.158Z,8368.00
2018-08-07T11:32:11.182Z,8168.00
2018-08-07T11:33:11.200Z,8004.00
2018-08-07T11:34:11.223Z,7828.00
2018-08-07T11:35:11.245Z,7668.00
2018-08-07T11:36:11.306Z,7540.00
2018-08-07T11:37:11.274Z,7432.00
2018-08-07T11:38:11.298Z,7364.00
2018-08-07T11:39:11.318Z,7304.00
2018-08-07T11:40:11.332Z,7280.00
2018-08-07T11:41:11.349Z,7276.00
2018-08-07T11:42:11.366Z,7260.00
2018-08-07T11:43:11.377Z,7224.00
2018-08-07T11:44:11.394Z,7224.00
2018-08-07T11:45:11.413Z,7212.00
2018-08-07T11:46:11.430Z,7188.00
2018-08-07T11:47:11.444Z,7168.00
2018-08-07T11:48:11.472Z,7148.00
2018-08-07T11:49:11.474Z,7136.00
2018-08-07T11:50:11.484Z,7140.00
2018-08-07T11:51:11.502Z,7172.00
2018-08-07T11:52:11.520Z,7180.00
2018-08-07T11:53:11.531Z,7192.00
2018-08-07T11:54:11.540Z,7184.00
2018-08-07T11:55:11.558Z,7168.00
2018-08-07T11:56:11.606Z,7116.00
2018-08-07T11:57:11.580Z,7096.00
2018-08-07T11:58:11.600Z,7072.00
2018-08-07T11:59:11.613Z,7076.00
2018-08-07T12:00:11.627Z,7048.00
2018-08-07T12:01:11.636Z,7020.00
2018-08-07T12:02:11.645Z,7024.00
2018-08-07T12:03:11.660Z,7000.00
2018-08-07T12:04:11.668Z,6972.00
2018-08-07T12:05:11.681Z,6952.00
2018-08-07T12:06:11.699Z,6896.00
2018-08-07T12:07:11.709Z,6832.00
2018-08-07T12:08:11.717Z,6752.00
2018-08-07T12:09:11.729Z,6676.00
2018-08-07T12:10:11.744Z,6600.00
2018-08-07T12:11:11.760Z,6552.00
2018-08-07T12:12:11.769Z,6508.00
2018-08-07T12:13:11.779Z,6472.00
2018-08-07T12:14:11.786Z,6452.00
2018-08-07T12:15:11.797Z,6408.00
2018-08-07T12:16:11.845Z,6376.00